sensor_id;sensor_type;location;lat;lon;timestamp;P1;durP1;ratioP1;P2;durP2;ratioP2
75593;SDS011;64176;49.156;7.810;2022-12-07T00:04:22;10.95;;;8.85;;
75593;SDS011;64176;49.156;7.810;2022-12-07T00:07:06;15.05;;;10.93;;
75593;SDS011;64176;49.156;7.810;2022-12-07T00:09:50;13.85;;;9.05;;
75593;SDS011;64176;49.156;7.810;2022-12-07T00:12:39;18.02;;;11.20;;
75593;SDS011;64176;49.156;7.810;2022-12-07T00:15:26;13.10;;;9.32;;
75593;SDS011;64176;49.156;7.810;2022-12-07T00:18:10;13.70;;;8.95;;
75593;SDS011;64176;49.156;7.810;2022-12-07T00:20:58;15.73;;;10.90;;
75593;SDS011;64176;49.156;7.810;2022-12-07T00:23:46;14.40;;;9.40;;
75593;SDS011;64176;49.156;7.810;2022-12-07T00:26:39;13.50;;;10.98;;
75593;SDS011;64176;49.156;7.810;2022-12-07T00:29:28;12.40;;;8.57;;
75593;SDS011;64176;49.156;7.810;2022-12-07T00:32:17;13.07;;;8.45;;
75593;SDS011;64176;49.156;7.810;2022-12-07T00:35:01;14.88;;;10.43;;
75593;SDS011;64176;49.156;7.810;2022-12-07T00:37:44;14.63;;;9.07;;
75593;SDS011;64176;49.156;7.810;2022-12-07T00:40:31;15.60;;;11.52;;
75593;SDS011;64176;49.156;7.810;2022-12-07T00:43:15;13.50;;;10.55;;
75593;SDS011;64176;49.156;7.810;2022-12-07T00:46:01;13.88;;;9.63;;
75593;SDS011;64176;49.156;7.810;2022-12-07T00:48:46;13.27;;;9.57;;
75593;SDS011;64176;49.156;7.810;2022-12-07T00:51:31;14.02;;;9.35;;
75593;SDS011;64176;49.156;7.810;2022-12-07T00:54:15;14.52;;;10.75;;
75593;SDS011;64176;49.156;7.810;2022-12-07T00:57:01;14.55;;;9.63;;
75593;SDS011;64176;49.156;7.810;2022-12-07T00:59:45;13.18;;;9.98;;
75593;SDS011;64176;49.156;7.810;2022-12-07T01:02:32;15.20;;;9.15;;
75593;SDS011;64176;49.156;7.810;2022-12-07T01:05:16;14.52;;;9.60;;
75593;SDS011;64176;49.156;7.810;2022-12-07T01:08:00;14.70;;;10.07;;
75593;SDS011;64176;49.156;7.810;2022-12-07T01:10:44;13.30;;;9.63;;
75593;SDS011;64176;49.156;7.810;2022-12-07T01:13:28;18.25;;;11.00;;
75593;SDS011;64176;49.156;7.810;2022-12-07T01:16:15;13.27;;;9.18;;
75593;SDS011;64176;49.156;7.810;2022-12-07T01:19:00;14.75;;;10.45;;
75593;SDS011;64176;49.156;7.810;2022-12-07T01:21:45;14.40;;;9.30;;
75593;SDS011;64176;49.156;7.810;2022-12-07T01:24:29;16.15;;;11.38;;
75593;SDS011;64176;49.156;7.810;2022-12-07T01:27:19;13.50;;;10.13;;
75593;SDS011;64176;49.156;7.810;2022-12-07T01:30:04;12.32;;;8.63;;
75593;SDS011;64176;49.156;7.810;2022-12-07T01:32:50;16.27;;;8.98;;
75593;SDS011;64176;49.156;7.810;2022-12-07T01:35:36;13.63;;;10.07;;
75593;SDS011;64176;49.156;7.810;2022-12-07T01:38:20;15.82;;;9.68;;
75593;SDS011;64176;49.156;7.810;2022-12-07T01:41:06;12.80;;;8.00;;
75593;SDS011;64176;49.156;7.810;2022-12-07T01:47:03;15.27;;;9.77;;
75593;SDS011;64176;49.156;7.810;2022-12-07T01:49:48;13.18;;;8.70;;
75593;SDS011;64176;49.156;7.810;2022-12-07T01:52:33;13.57;;;9.40;;
75593;SDS011;64176;49.156;7.810;2022-12-07T01:55:19;15.13;;;10.20;;
75593;SDS011;64176;49.156;7.810;2022-12-07T01:58:06;15.15;;;9.10;;
75593;SDS011;64176;49.156;7.810;2022-12-07T02:00:51;13.52;;;8.07;;
75593;SDS011;64176;49.156;7.810;2022-12-07T02:03:39;11.20;;;9.20;;
75593;SDS011;64176;49.156;7.810;2022-12-07T02:06:25;15.65;;;10.07;;
75593;SDS011;64176;49.156;7.810;2022-12-07T02:09:10;13.55;;;9.15;;
75593;SDS011;64176;49.156;7.810;2022-12-07T02:11:54;14.10;;;9.38;;
75593;SDS011;64176;49.156;7.810;2022-12-07T02:14:39;15.02;;;11.65;;
75593;SDS011;64176;49.156;7.810;2022-12-07T02:29:49;11.75;;;9.55;;
75593;SDS011;64176;49.156;7.810;2022-12-07T02:32:46;11.02;;;8.38;;
75593;SDS011;64176;49.156;7.810;2022-12-07T02:35:43;16.15;;;10.15;;
75593;SDS011;64176;49.156;7.810;2022-12-07T02:38:43;11.30;;;7.38;;
75593;SDS011;64176;49.156;7.810;2022-12-07T02:41:39;16.15;;;8.30;;
75593;SDS011;64176;49.156;7.810;2022-12-07T02:44:24;12.55;;;7.63;;
75593;SDS011;64176;49.156;7.810;2022-12-07T02:47:14;11.73;;;8.18;;
75593;SDS011;64176;49.156;7.810;2022-12-07T02:50:04;11.73;;;8.15;;
75593;SDS011;64176;49.156;7.810;2022-12-07T02:52:50;12.05;;;7.40;;
75593;SDS011;64176;49.156;7.810;2022-12-07T02:55:36;12.82;;;7.72;;
75593;SDS011;64176;49.156;7.810;2022-12-07T03:01:25;13.50;;;7.00;;
75593;SDS011;64176;49.156;7.810;2022-12-07T03:10:26;12.80;;;9.10;;
75593;SDS011;64176;49.156;7.810;2022-12-07T03:16:24;14.73;;;7.05;;
75593;SDS011;64176;49.156;7.810;2022-12-07T03:19:18;11.88;;;7.22;;
75593;SDS011;64176;49.156;7.810;2022-12-07T03:22:08;12.68;;;8.70;;
75593;SDS011;64176;49.156;7.810;2022-12-07T03:24:57;11.52;;;9.18;;
75593;SDS011;64176;49.156;7.810;2022-12-07T03:27:52;12.00;;;9.88;;
75593;SDS011;64176;49.156;7.810;2022-12-07T03:30:44;13.23;;;8.38;;
75593;SDS011;64176;49.156;7.810;2022-12-07T03:33:36;13.35;;;8.02;;
75593;SDS011;64176;49.156;7.810;2022-12-07T03:36:27;11.98;;;8.30;;
75593;SDS011;64176;49.156;7.810;2022-12-07T03:42:31;16.60;;;8.40;;
75593;SDS011;64176;49.156;7.810;2022-12-07T03:45:16;10.60;;;7.82;;
75593;SDS011;64176;49.156;7.810;2022-12-07T03:48:07;12.30;;;9.13;;
75593;SDS011;64176;49.156;7.810;2022-12-07T03:51:38;13.60;;;8.85;;
75593;SDS011;64176;49.156;7.810;2022-12-07T03:54:40;11.55;;;7.38;;
75593;SDS011;64176;49.156;7.810;2022-12-07T03:57:38;13.40;;;8.25;;
75593;SDS011;64176;49.156;7.810;2022-12-07T04:00:28;9.55;;;7.82;;
75593;SDS011;64176;49.156;7.810;2022-12-07T04:03:13;11.15;;;7.68;;
75593;SDS011;64176;49.156;7.810;2022-12-07T04:05:59;11.48;;;7.53;;
75593;SDS011;64176;49.156;7.810;2022-12-07T04:11:28;12.27;;;8.20;;
75593;SDS011;64176;49.156;7.810;2022-12-07T04:14:12;10.38;;;6.35;;
75593;SDS011;64176;49.156;7.810;2022-12-07T04:17:08;11.90;;;8.82;;
75593;SDS011;64176;49.156;7.810;2022-12-07T04:19:52;10.88;;;7.80;;
75593;SDS011;64176;49.156;7.810;2022-12-07T04:22:41;10.23;;;7.72;;
75593;SDS011;64176;49.156;7.810;2022-12-07T04:25:25;11.52;;;6.93;;
75593;SDS011;64176;49.156;7.810;2022-12-07T04:28:09;9.63;;;7.80;;
75593;SDS011;64176;49.156;7.810;2022-12-07T04:30:53;10.57;;;7.15;;
75593;SDS011;64176;49.156;7.810;2022-12-07T04:33:37;13.75;;;8.57;;
75593;SDS011;64176;49.156;7.810;2022-12-07T04:36:20;11.07;;;6.72;;
75593;SDS011;64176;49.156;7.810;2022-12-07T04:39:07;11.02;;;6.57;;
75593;SDS011;64176;49.156;7.810;2022-12-07T04:41:57;11.98;;;7.85;;
75593;SDS011;64176;49.156;7.810;2022-12-07T04:44:44;11.82;;;7.53;;
75593;SDS011;64176;49.156;7.810;2022-12-07T04:47:28;15.23;;;7.80;;
75593;SDS011;64176;49.156;7.810;2022-12-07T04:50:12;14.52;;;8.65;;
75593;SDS011;64176;49.156;7.810;2022-12-07T04:52:56;16.17;;;9.15;;
75593;SDS011;64176;49.156;7.810;2022-12-07T04:55:45;11.40;;;8.40;;
75593;SDS011;64176;49.156;7.810;2022-12-07T04:58:29;13.73;;;9.85;;
75593;SDS011;64176;49.156;7.810;2022-12-07T05:01:13;13.82;;;10.75;;
75593;SDS011;64176;49.156;7.810;2022-12-07T05:03:59;12.18;;;8.70;;
75593;SDS011;64176;49.156;7.810;2022-12-07T05:06:43;11.23;;;6.57;;
75593;SDS011;64176;49.156;7.810;2022-12-07T05:09:27;13.23;;;8.50;;
75593;SDS011;64176;49.156;7.810;2022-12-07T05:12:14;14.63;;;10.10;;
75593;SDS011;64176;49.156;7.810;2022-12-07T05:14:58;13.95;;;9.38;;
75593;SDS011;64176;49.156;7.810;2022-12-07T05:17:42;12.98;;;7.40;;
75593;SDS011;64176;49.156;7.810;2022-12-07T05:20:26;13.43;;;10.15;;
75593;SDS011;64176;49.156;7.810;2022-12-07T05:23:10;14.23;;;8.35;;
75593;SDS011;64176;49.156;7.810;2022-12-07T05:25:54;16.73;;;10.68;;
75593;SDS011;64176;49.156;7.810;2022-12-07T05:28:38;13.65;;;7.80;;
75593;SDS011;64176;49.156;7.810;2022-12-07T05:31:22;12.05;;;6.97;;
75593;SDS011;64176;49.156;7.810;2022-12-07T05:34:08;12.80;;;7.88;;
75593;SDS011;64176;49.156;7.810;2022-12-07T05:36:52;11.02;;;9.43;;
75593;SDS011;64176;49.156;7.810;2022-12-07T05:39:38;13.95;;;10.55;;
75593;SDS011;64176;49.156;7.810;2022-12-07T05:42:24;14.77;;;10.10;;
75593;SDS011;64176;49.156;7.810;2022-12-07T05:45:08;12.68;;;8.25;;
75593;SDS011;64176;49.156;7.810;2022-12-07T05:47:56;13.05;;;8.38;;
75593;SDS011;64176;49.156;7.810;2022-12-07T05:50:42;11.60;;;9.52;;
75593;SDS011;64176;49.156;7.810;2022-12-07T05:53:26;12.73;;;9.02;;
75593;SDS011;64176;49.156;7.810;2022-12-07T05:56:10;11.15;;;7.63;;
75593;SDS011;64176;49.156;7.810;2022-12-07T05:58:54;12.18;;;9.43;;
75593;SDS011;64176;49.156;7.810;2022-12-07T06:02:04;13.00;;;7.22;;
75593;SDS011;64176;49.156;7.810;2022-12-07T06:04:53;10.70;;;8.00;;
75593;SDS011;64176;49.156;7.810;2022-12-07T06:07:42;10.05;;;7.35;;
75593;SDS011;64176;49.156;7.810;2022-12-07T06:10:28;16.63;;;11.88;;
75593;SDS011;64176;49.156;7.810;2022-12-07T06:13:12;13.98;;;10.07;;
75593;SDS011;64176;49.156;7.810;2022-12-07T06:15:58;13.40;;;10.13;;
75593;SDS011;64176;49.156;7.810;2022-12-07T06:18:43;14.27;;;7.28;;
75593;SDS011;64176;49.156;7.810;2022-12-07T06:21:30;12.27;;;7.43;;
75593;SDS011;64176;49.156;7.810;2022-12-07T06:24:14;12.10;;;7.88;;
75593;SDS011;64176;49.156;7.810;2022-12-07T06:27:02;10.45;;;7.15;;
75593;SDS011;64176;49.156;7.810;2022-12-07T06:29:46;12.93;;;8.18;;
75593;SDS011;64176;49.156;7.810;2022-12-07T06:32:33;10.50;;;6.50;;
75593;SDS011;64176;49.156;7.810;2022-12-07T06:38:04;12.15;;;7.20;;
75593;SDS011;64176;49.156;7.810;2022-12-07T06:40:48;10.90;;;6.40;;
75593;SDS011;64176;49.156;7.810;2022-12-07T06:43:32;11.48;;;7.68;;
75593;SDS011;64176;49.156;7.810;2022-12-07T06:46:24;11.23;;;7.80;;
75593;SDS011;64176;49.156;7.810;2022-12-07T06:49:11;10.88;;;7.43;;
75593;SDS011;64176;49.156;7.810;2022-12-07T06:51:55;10.35;;;7.00;;
75593;SDS011;64176;49.156;7.810;2022-12-07T06:54:39;12.73;;;8.02;;
75593;SDS011;64176;49.156;7.810;2022-12-07T06:57:23;14.57;;;8.00;;
75593;SDS011;64176;49.156;7.810;2022-12-07T07:00:10;12.07;;;7.30;;
75593;SDS011;64176;49.156;7.810;2022-12-07T07:02:54;28.25;;;15.73;;
75593;SDS011;64176;49.156;7.810;2022-12-07T07:05:42;30.02;;;15.20;;
75593;SDS011;64176;49.156;7.810;2022-12-07T07:08:26;20.88;;;10.98;;
75593;SDS011;64176;49.156;7.810;2022-12-07T07:11:15;20.38;;;10.32;;
75593;SDS011;64176;49.156;7.810;2022-12-07T07:13:59;15.00;;;9.73;;
75593;SDS011;64176;49.156;7.810;2022-12-07T07:16:46;13.02;;;9.63;;
75593;SDS011;64176;49.156;7.810;2022-12-07T07:19:32;13.65;;;8.23;;
75593;SDS011;64176;49.156;7.810;2022-12-07T07:22:16;17.60;;;10.23;;
75593;SDS011;64176;49.156;7.810;2022-12-07T07:25:00;14.50;;;10.65;;
75593;SDS011;64176;49.156;7.810;2022-12-07T07:27:46;19.23;;;11.82;;
75593;SDS011;64176;49.156;7.810;2022-12-07T07:30:35;23.17;;;15.85;;
75593;SDS011;64176;49.156;7.810;2022-12-07T07:33:19;18.52;;;14.35;;
75593;SDS011;64176;49.156;7.810;2022-12-07T07:36:03;16.92;;;14.68;;
75593;SDS011;64176;49.156;7.810;2022-12-07T07:38:50;17.42;;;12.38;;
75593;SDS011;64176;49.156;7.810;2022-12-07T07:41:34;13.38;;;8.95;;
75593;SDS011;64176;49.156;7.810;2022-12-07T07:44:22;14.68;;;8.43;;
75593;SDS011;64176;49.156;7.810;2022-12-07T07:47:06;18.70;;;10.57;;
75593;SDS011;64176;49.156;7.810;2022-12-07T07:49:50;15.02;;;9.48;;
75593;SDS011;64176;49.156;7.810;2022-12-07T07:52:34;13.68;;;7.43;;
75593;SDS011;64176;49.156;7.810;2022-12-07T07:55:18;18.70;;;10.82;;
75593;SDS011;64176;49.156;7.810;2022-12-07T07:58:01;18.00;;;10.95;;
75593;SDS011;64176;49.156;7.810;2022-12-07T08:00:45;16.17;;;10.05;;
75593;SDS011;64176;49.156;7.810;2022-12-07T08:03:29;12.82;;;9.00;;
75593;SDS011;64176;49.156;7.810;2022-12-07T08:09:00;11.75;;;7.75;;
75593;SDS011;64176;49.156;7.810;2022-12-07T08:11:49;12.20;;;7.00;;
75593;SDS011;64176;49.156;7.810;2022-12-07T08:14:33;11.55;;;7.82;;
75593;SDS011;64176;49.156;7.810;2022-12-07T08:17:17;16.30;;;11.32;;
75593;SDS011;64176;49.156;7.810;2022-12-07T08:20:02;18.65;;;12.45;;
75593;SDS011;64176;49.156;7.810;2022-12-07T08:22:49;19.58;;;12.90;;
75593;SDS011;64176;49.156;7.810;2022-12-07T08:25:35;19.63;;;10.55;;
75593;SDS011;64176;49.156;7.810;2022-12-07T08:28:22;14.15;;;8.80;;
75593;SDS011;64176;49.156;7.810;2022-12-07T08:31:07;20.15;;;10.52;;
75593;SDS011;64176;49.156;7.810;2022-12-07T08:33:54;14.88;;;11.15;;
75593;SDS011;64176;49.156;7.810;2022-12-07T08:36:39;18.25;;;11.18;;
75593;SDS011;64176;49.156;7.810;2022-12-07T08:39:25;15.38;;;9.73;;
75593;SDS011;64176;49.156;7.810;2022-12-07T08:42:12;13.57;;;8.18;;
75593;SDS011;64176;49.156;7.810;2022-12-07T08:44:56;12.52;;;8.27;;
75593;SDS011;64176;49.156;7.810;2022-12-07T08:47:48;14.80;;;7.70;;
75593;SDS011;64176;49.156;7.810;2022-12-07T08:50:44;20.85;;;12.60;;
75593;SDS011;64176;49.156;7.810;2022-12-07T08:53:30;23.25;;;13.38;;
75593;SDS011;64176;49.156;7.810;2022-12-07T08:56:16;18.60;;;13.35;;
75593;SDS011;64176;49.156;7.810;2022-12-07T08:59:01;25.17;;;16.17;;
75593;SDS011;64176;49.156;7.810;2022-12-07T09:01:47;20.05;;;12.43;;
75593;SDS011;64176;49.156;7.810;2022-12-07T09:04:31;19.25;;;11.95;;
75593;SDS011;64176;49.156;7.810;2022-12-07T09:07:18;18.00;;;11.38;;
75593;SDS011;64176;49.156;7.810;2022-12-07T09:10:03;18.77;;;9.75;;
75593;SDS011;64176;49.156;7.810;2022-12-07T09:12:47;20.65;;;13.10;;
75593;SDS011;64176;49.156;7.810;2022-12-07T09:15:31;17.45;;;10.13;;
75593;SDS011;64176;49.156;7.810;2022-12-07T09:18:18;17.75;;;11.40;;
75593;SDS011;64176;49.156;7.810;2022-12-07T09:21:02;20.25;;;11.40;;
75593;SDS011;64176;49.156;7.810;2022-12-07T09:23:47;18.32;;;10.52;;
75593;SDS011;64176;49.156;7.810;2022-12-07T09:26:31;20.27;;;11.68;;
75593;SDS011;64176;49.156;7.810;2022-12-07T09:29:15;19.17;;;10.82;;
75593;SDS011;64176;49.156;7.810;2022-12-07T09:31:59;19.63;;;10.13;;
75593;SDS011;64176;49.156;7.810;2022-12-07T09:34:45;18.77;;;10.57;;
75593;SDS011;64176;49.156;7.810;2022-12-07T09:37:29;23.73;;;11.85;;
75593;SDS011;64176;49.156;7.810;2022-12-07T09:40:16;19.15;;;10.02;;
75593;SDS011;64176;49.156;7.810;2022-12-07T09:43:11;23.52;;;10.45;;
75593;SDS011;64176;49.156;7.810;2022-12-07T09:46:00;21.52;;;10.63;;
75593;SDS011;64176;49.156;7.810;2022-12-07T09:48:47;20.75;;;11.77;;
75593;SDS011;64176;49.156;7.810;2022-12-07T09:51:33;19.15;;;10.23;;
75593;SDS011;64176;49.156;7.810;2022-12-07T09:54:17;21.90;;;12.75;;
75593;SDS011;64176;49.156;7.810;2022-12-07T09:57:01;21.40;;;12.20;;
75593;SDS011;64176;49.156;7.810;2022-12-07T09:59:46;23.58;;;14.00;;
75593;SDS011;64176;49.156;7.810;2022-12-07T10:08:04;23.27;;;10.75;;
75593;SDS011;64176;49.156;7.810;2022-12-07T10:10:51;17.70;;;11.13;;
75593;SDS011;64176;49.156;7.810;2022-12-07T10:16:39;29.73;;;16.92;;
75593;SDS011;64176;49.156;7.810;2022-12-07T10:19:31;27.52;;;15.18;;
75593;SDS011;64176;49.156;7.810;2022-12-07T10:22:22;20.05;;;11.45;;
75593;SDS011;64176;49.156;7.810;2022-12-07T10:25:17;16.88;;;9.90;;
75593;SDS011;64176;49.156;7.810;2022-12-07T10:28:10;38.65;;;23.83;;
75593;SDS011;64176;49.156;7.810;2022-12-07T10:31:02;28.38;;;15.93;;
75593;SDS011;64176;49.156;7.810;2022-12-07T10:33:59;21.92;;;12.43;;
75593;SDS011;64176;49.156;7.810;2022-12-07T10:39:32;24.55;;;12.43;;
75593;SDS011;64176;49.156;7.810;2022-12-07T10:42:30;23.73;;;13.82;;
75593;SDS011;64176;49.156;7.810;2022-12-07T10:45:17;58.30;;;24.55;;
75593;SDS011;64176;49.156;7.810;2022-12-07T11:00:43;20.17;;;11.98;;
75593;SDS011;64176;49.156;7.810;2022-12-07T11:09:34;21.20;;;11.32;;
75593;SDS011;64176;49.156;7.810;2022-12-07T11:15:45;19.50;;;10.38;;
75593;SDS011;64176;49.156;7.810;2022-12-07T11:24:42;21.60;;;11.32;;
75593;SDS011;64176;49.156;7.810;2022-12-07T11:27:40;19.40;;;11.27;;
75593;SDS011;64176;49.156;7.810;2022-12-07T11:30:34;15.77;;;10.13;;
75593;SDS011;64176;49.156;7.810;2022-12-07T11:33:45;20.50;;;14.35;;
75593;SDS011;64176;49.156;7.810;2022-12-07T11:36:40;18.85;;;10.70;;
75593;SDS011;64176;49.156;7.810;2022-12-07T11:39:36;16.70;;;10.68;;
75593;SDS011;64176;49.156;7.810;2022-12-07T11:42:31;14.57;;;9.32;;
75593;SDS011;64176;49.156;7.810;2022-12-07T11:45:24;17.35;;;9.77;;
75593;SDS011;64176;49.156;7.810;2022-12-07T11:50:56;18.05;;;10.95;;
75593;SDS011;64176;49.156;7.810;2022-12-07T11:56:30;14.20;;;8.75;;
75593;SDS011;64176;49.156;7.810;2022-12-07T11:59:31;16.05;;;10.90;;
75593;SDS011;64176;49.156;7.810;2022-12-07T12:02:49;14.20;;;8.15;;
75593;SDS011;64176;49.156;7.810;2022-12-07T12:05:39;19.88;;;11.13;;
75593;SDS011;64176;49.156;7.810;2022-12-07T12:08:36;16.33;;;10.95;;
75593;SDS011;64176;49.156;7.810;2022-12-07T12:14:26;15.07;;;8.00;;
75593;SDS011;64176;49.156;7.810;2022-12-07T12:23:45;13.95;;;9.15;;
75593;SDS011;64176;49.156;7.810;2022-12-07T12:26:31;13.27;;;8.55;;
75593;SDS011;64176;49.156;7.810;2022-12-07T12:29:21;12.30;;;7.75;;
75593;SDS011;64176;49.156;7.810;2022-12-07T12:32:19;13.48;;;8.63;;
75593;SDS011;64176;49.156;7.810;2022-12-07T12:38:31;9.70;;;7.57;;
75593;SDS011;64176;49.156;7.810;2022-12-07T12:47:03;13.48;;;9.02;;
75593;SDS011;64176;49.156;7.810;2022-12-07T12:59:23;10.95;;;7.68;;
75593;SDS011;64176;49.156;7.810;2022-12-07T13:08:17;12.23;;;7.80;;
75593;SDS011;64176;49.156;7.810;2022-12-07T13:11:16;13.82;;;8.32;;
75593;SDS011;64176;49.156;7.810;2022-12-07T13:20:40;15.02;;;7.63;;
75593;SDS011;64176;49.156;7.810;2022-12-07T13:29:11;14.75;;;9.20;;
75593;SDS011;64176;49.156;7.810;2022-12-07T13:32:00;11.52;;;8.30;;
75593;SDS011;64176;49.156;7.810;2022-12-07T13:34:46;16.33;;;9.10;;
75593;SDS011;64176;49.156;7.810;2022-12-07T13:37:31;14.63;;;10.45;;
75593;SDS011;64176;49.156;7.810;2022-12-07T13:40:22;12.25;;;7.32;;
75593;SDS011;64176;49.156;7.810;2022-12-07T13:43:14;13.73;;;8.10;;
75593;SDS011;64176;49.156;7.810;2022-12-07T13:46:03;17.13;;;10.20;;
75593;SDS011;64176;49.156;7.810;2022-12-07T13:49:00;22.02;;;12.88;;
75593;SDS011;64176;49.156;7.810;2022-12-07T13:51:47;44.25;;;21.35;;
75593;SDS011;64176;49.156;7.810;2022-12-07T13:54:49;44.65;;;24.83;;
75593;SDS011;64176;49.156;7.810;2022-12-07T13:57:41;17.75;;;13.07;;
75593;SDS011;64176;49.156;7.810;2022-12-07T14:00:26;13.90;;;9.73;;
75593;SDS011;64176;49.156;7.810;2022-12-07T14:06:06;14.75;;;9.30;;
75593;SDS011;64176;49.156;7.810;2022-12-07T14:09:22;12.25;;;8.13;;
75593;SDS011;64176;49.156;7.810;2022-12-07T14:12:11;10.90;;;7.20;;
75593;SDS011;64176;49.156;7.810;2022-12-07T14:14:56;9.23;;;6.38;;
75593;SDS011;64176;49.156;7.810;2022-12-07T14:17:53;11.13;;;7.35;;
75593;SDS011;64176;49.156;7.810;2022-12-07T14:20:47;11.27;;;6.93;;
75593;SDS011;64176;49.156;7.810;2022-12-07T14:23:31;10.18;;;7.53;;
75593;SDS011;64176;49.156;7.810;2022-12-07T14:26:16;11.15;;;7.13;;
75593;SDS011;64176;49.156;7.810;2022-12-07T14:29:20;10.23;;;7.47;;
75593;SDS011;64176;49.156;7.810;2022-12-07T14:32:13;8.93;;;6.00;;
75593;SDS011;64176;49.156;7.810;2022-12-07T14:35:12;12.63;;;7.45;;
75593;SDS011;64176;49.156;7.810;2022-12-07T14:37:57;12.95;;;8.57;;
75593;SDS011;64176;49.156;7.810;2022-12-07T14:40:43;14.07;;;9.82;;
75593;SDS011;64176;49.156;7.810;2022-12-07T14:43:32;13.82;;;8.60;;
75593;SDS011;64176;49.156;7.810;2022-12-07T14:46:16;16.88;;;10.45;;
75593;SDS011;64176;49.156;7.810;2022-12-07T14:49:03;18.77;;;10.85;;
75593;SDS011;64176;49.156;7.810;2022-12-07T14:51:49;12.00;;;8.70;;
75593;SDS011;64176;49.156;7.810;2022-12-07T14:54:33;11.27;;;7.57;;
75593;SDS011;64176;49.156;7.810;2022-12-07T14:57:19;12.05;;;7.85;;
75593;SDS011;64176;49.156;7.810;2022-12-07T15:00:04;11.95;;;7.28;;
75593;SDS011;64176;49.156;7.810;2022-12-07T15:02:51;13.13;;;7.50;;
75593;SDS011;64176;49.156;7.810;2022-12-07T15:05:40;9.98;;;6.10;;
75593;SDS011;64176;49.156;7.810;2022-12-07T15:08:25;12.32;;;7.55;;
75593;SDS011;64176;49.156;7.810;2022-12-07T15:11:13;8.93;;;6.35;;
75593;SDS011;64176;49.156;7.810;2022-12-07T15:13:57;12.55;;;7.43;;
75593;SDS011;64176;49.156;7.810;2022-12-07T15:16:55;11.45;;;7.22;;
75593;SDS011;64176;49.156;7.810;2022-12-07T15:19:39;17.55;;;9.07;;
75593;SDS011;64176;49.156;7.810;2022-12-07T15:22:25;10.40;;;6.75;;
75593;SDS011;64176;49.156;7.810;2022-12-07T15:25:13;15.13;;;9.20;;
75593;SDS011;64176;49.156;7.810;2022-12-07T15:28:03;13.63;;;7.57;;
75593;SDS011;64176;49.156;7.810;2022-12-07T15:30:50;17.02;;;10.90;;
75593;SDS011;64176;49.156;7.810;2022-12-07T15:33:35;17.05;;;11.02;;
75593;SDS011;64176;49.156;7.810;2022-12-07T15:36:22;23.10;;;14.98;;
75593;SDS011;64176;49.156;7.810;2022-12-07T15:39:08;12.95;;;7.80;;
75593;SDS011;64176;49.156;7.810;2022-12-07T15:41:57;17.70;;;10.35;;
75593;SDS011;64176;49.156;7.810;2022-12-07T15:44:44;15.30;;;7.95;;
75593;SDS011;64176;49.156;7.810;2022-12-07T15:47:47;13.68;;;8.45;;
75593;SDS011;64176;49.156;7.810;2022-12-07T15:50:33;12.95;;;7.97;;
75593;SDS011;64176;49.156;7.810;2022-12-07T15:53:21;14.85;;;11.00;;
75593;SDS011;64176;49.156;7.810;2022-12-07T15:56:06;15.32;;;9.00;;
75593;SDS011;64176;49.156;7.810;2022-12-07T15:58:55;11.25;;;8.57;;
75593;SDS011;64176;49.156;7.810;2022-12-07T16:01:40;13.75;;;9.52;;
75593;SDS011;64176;49.156;7.810;2022-12-07T16:04:24;13.77;;;9.73;;
75593;SDS011;64176;49.156;7.810;2022-12-07T16:07:11;14.30;;;10.13;;
75593;SDS011;64176;49.156;7.810;2022-12-07T16:09:58;14.25;;;9.90;;
75593;SDS011;64176;49.156;7.810;2022-12-07T16:12:44;12.90;;;8.15;;
75593;SDS011;64176;49.156;7.810;2022-12-07T16:15:28;13.70;;;9.65;;
75593;SDS011;64176;49.156;7.810;2022-12-07T16:18:12;15.32;;;10.68;;
75593;SDS011;64176;49.156;7.810;2022-12-07T16:20:56;22.27;;;16.88;;
75593;SDS011;64176;49.156;7.810;2022-12-07T16:23:43;16.08;;;10.38;;
75593;SDS011;64176;49.156;7.810;2022-12-07T16:29:13;17.08;;;11.68;;
75593;SDS011;64176;49.156;7.810;2022-12-07T16:31:57;18.75;;;13.40;;
75593;SDS011;64176;49.156;7.810;2022-12-07T16:34:41;18.33;;;12.32;;
75593;SDS011;64176;49.156;7.810;2022-12-07T16:40:14;16.10;;;9.43;;
75593;SDS011;64176;49.156;7.810;2022-12-07T16:43:01;18.27;;;11.13;;
75593;SDS011;64176;49.156;7.810;2022-12-07T16:45:47;13.98;;;9.25;;
75593;SDS011;64176;49.156;7.810;2022-12-07T16:48:36;16.23;;;10.68;;
75593;SDS011;64176;49.156;7.810;2022-12-07T16:51:23;17.23;;;11.55;;
75593;SDS011;64176;49.156;7.810;2022-12-07T16:54:08;19.15;;;12.18;;
75593;SDS011;64176;49.156;7.810;2022-12-07T16:56:57;18.33;;;13.07;;
75593;SDS011;64176;49.156;7.810;2022-12-07T16:59:44;20.25;;;14.68;;
75593;SDS011;64176;49.156;7.810;2022-12-07T17:02:31;21.17;;;12.05;;
75593;SDS011;64176;49.156;7.810;2022-12-07T17:05:15;21.65;;;14.93;;
75593;SDS011;64176;49.156;7.810;2022-12-07T17:07:59;18.25;;;13.60;;
75593;SDS011;64176;49.156;7.810;2022-12-07T17:10:48;18.95;;;12.77;;
75593;SDS011;64176;49.156;7.810;2022-12-07T17:13:34;20.98;;;14.82;;
75593;SDS011;64176;49.156;7.810;2022-12-07T17:16:37;26.67;;;14.38;;
75593;SDS011;64176;49.156;7.810;2022-12-07T17:19:22;24.90;;;15.48;;
75593;SDS011;64176;49.156;7.810;2022-12-07T17:22:08;18.63;;;13.48;;
75593;SDS011;64176;49.156;7.810;2022-12-07T17:24:54;19.45;;;11.15;;
75593;SDS011;64176;49.156;7.810;2022-12-07T17:27:38;18.80;;;13.07;;
75593;SDS011;64176;49.156;7.810;2022-12-07T17:30:27;18.50;;;12.23;;
75593;SDS011;64176;49.156;7.810;2022-12-07T17:33:14;20.08;;;14.43;;
75593;SDS011;64176;49.156;7.810;2022-12-07T17:36:09;25.33;;;17.15;;
75593;SDS011;64176;49.156;7.810;2022-12-07T17:38:59;21.13;;;13.38;;
75593;SDS011;64176;49.156;7.810;2022-12-07T17:41:43;17.90;;;11.23;;
75593;SDS011;64176;49.156;7.810;2022-12-07T17:44:49;25.90;;;15.80;;
75593;SDS011;64176;49.156;7.810;2022-12-07T17:47:36;50.90;;;31.95;;
75593;SDS011;64176;49.156;7.810;2022-12-07T17:50:20;53.03;;;33.80;;
75593;SDS011;64176;49.156;7.810;2022-12-07T17:53:24;47.72;;;25.92;;
75593;SDS011;64176;49.156;7.810;2022-12-07T17:56:08;55.88;;;30.13;;
75593;SDS011;64176;49.156;7.810;2022-12-07T17:58:55;52.80;;;32.45;;
75593;SDS011;64176;49.156;7.810;2022-12-07T18:01:41;51.95;;;31.33;;
75593;SDS011;64176;49.156;7.810;2022-12-07T18:04:28;48.70;;;28.70;;
75593;SDS011;64176;49.156;7.810;2022-12-07T18:07:15;45.97;;;25.25;;
75593;SDS011;64176;49.156;7.810;2022-12-07T18:09:59;32.40;;;19.83;;
75593;SDS011;64176;49.156;7.810;2022-12-07T18:12:45;32.70;;;20.65;;
75593;SDS011;64176;49.156;7.810;2022-12-07T18:15:29;45.53;;;30.75;;
75593;SDS011;64176;49.156;7.810;2022-12-07T18:18:16;48.78;;;29.08;;
75593;SDS011;64176;49.156;7.810;2022-12-07T18:21:03;37.85;;;22.83;;
75593;SDS011;64176;49.156;7.810;2022-12-07T18:23:51;21.83;;;13.95;;
75593;SDS011;64176;49.156;7.810;2022-12-07T18:26:42;25.02;;;15.48;;
75593;SDS011;64176;49.156;7.810;2022-12-07T18:29:27;18.80;;;13.48;;
75593;SDS011;64176;49.156;7.810;2022-12-07T18:32:11;28.42;;;17.85;;
75593;SDS011;64176;49.156;7.810;2022-12-07T18:34:55;30.88;;;19.83;;
75593;SDS011;64176;49.156;7.810;2022-12-07T18:37:47;38.80;;;22.52;;
75593;SDS011;64176;49.156;7.810;2022-12-07T18:40:36;36.63;;;23.85;;
75593;SDS011;64176;49.156;7.810;2022-12-07T18:43:21;43.53;;;25.63;;
75593;SDS011;64176;49.156;7.810;2022-12-07T18:46:11;62.67;;;37.03;;
75593;SDS011;64176;49.156;7.810;2022-12-07T18:48:57;56.08;;;31.25;;
75593;SDS011;64176;49.156;7.810;2022-12-07T18:51:41;57.13;;;34.15;;